createdAt,value
2019-04-22T03:26:31.770Z,13.90
2019-04-22T04:51:53.707Z,16.77
2019-04-22T04:57:00.893Z,17.17
2019-04-22T04:59:30.384Z,15.83
2019-04-22T05:01:52.800Z,14.83
2019-04-22T05:06:53.688Z,14.80
2019-04-22T05:09:19.544Z,14.50
2019-04-22T05:11:51.980Z,14.27
2019-04-22T05:14:22.908Z,16.73
2019-04-22T05:16:49.435Z,12.90
2019-04-22T05:19:20.931Z,14.17
2019-04-22T05:21:53.374Z,13.17
2019-04-22T05:24:22.764Z,10.97
2019-04-22T05:27:05.264Z,12.27
2019-04-22T05:29:17.080Z,14.13
2019-04-22T05:31:52.250Z,14.60
2019-04-22T05:34:16.294Z,15.07
2019-04-22T05:36:40.347Z,11.00
2019-04-22T05:39:12.463Z,12.37
2019-04-22T05:41:43.152Z,13.23
2019-04-22T05:44:12.504Z,8.43
2019-04-22T05:46:34.689Z,9.70
2019-04-22T05:49:13.226Z,13.13
2019-04-22T05:51:41.969Z,9.47
2019-04-22T05:54:22.891Z,10.23
2019-04-22T05:56:40.839Z,8.17
2019-04-22T05:59:20.827Z,10.27
2019-04-22T06:01:52.012Z,8.50
2019-04-22T06:04:45.265Z,9.53
2019-04-22T06:07:13.460Z,10.27
2019-04-22T06:09:38.892Z,8.00
2019-04-22T06:12:04.905Z,11.83
2019-04-22T06:14:40.678Z,13.83
2019-04-22T06:17:20.255Z,7.77
2019-04-22T06:19:54.198Z,8.17
2019-04-22T06:22:22.417Z,10.27
2019-04-22T06:24:54.113Z,8.60
2019-04-22T06:27:21.845Z,9.67
2019-04-22T06:29:41.488Z,10.97
2019-04-22T06:32:26.437Z,9.47
2019-04-22T06:35:03.533Z,10.67
2019-04-22T06:37:26.113Z,9.03
2019-04-22T06:39:53.704Z,11.20
2019-04-22T06:42:29.025Z,10.50
2019-04-22T06:44:58.206Z,14.53
2019-04-22T06:47:40.010Z,11.03
2019-04-22T06:50:07.746Z,8.77
2019-04-22T06:55:16.670Z,9.13
2019-04-22T06:57:52.357Z,8.00
2019-04-22T07:00:26.809Z,7.67
2019-04-22T07:03:26.287Z,8.20
2019-04-22T07:05:28.535Z,8.23
2019-04-22T07:08:04.439Z,8.87
2019-04-22T07:13:04.789Z,7.37
2019-04-22T07:15:46.299Z,9.47
2019-04-22T07:18:15.772Z,13.80
2019-04-22T07:20:42.194Z,7.00
2019-04-22T07:23:08.500Z,8.47
2019-04-22T07:25:34.983Z,7.33
2019-04-22T07:28:07.237Z,8.13
2019-04-22T07:30:40.965Z,9.30
2019-04-22T07:36:33.526Z,6.95
2019-04-22T07:39:00.950Z,6.67
2019-04-22T07:41:28.682Z,10.40
2019-04-22T07:47:10.093Z,9.50
2019-04-22T07:52:18.762Z,8.00
2019-04-22T07:54:58.333Z,8.87
2019-04-22T07:57:33.332Z,8.07
2019-04-22T08:02:53.635Z,9.77
2019-04-22T08:05:37.847Z,8.97
2019-04-22T08:09:17.501Z,10.87
2019-04-22T08:12:28.165Z,9.30
2019-04-22T08:14:55.132Z,9.85
2019-04-22T08:20:07.038Z,6.97
2019-04-22T08:22:27.422Z,9.93
2019-04-22T08:25:00.273Z,7.75
2019-04-22T08:27:33.340Z,9.15
2019-04-22T08:32:28.526Z,10.72
2019-04-22T08:34:55.381Z,7.95
2019-04-22T08:40:03.889Z,8.30
2019-04-22T08:42:36.539Z,9.25
2019-04-22T08:45:11.647Z,6.03
2019-04-22T08:47:30.947Z,9.00
2019-04-22T08:50:13.858Z,7.78
2019-04-22T08:52:38.583Z,6.63
2019-04-22T08:55:08.134Z,7.87
2019-04-22T08:57:46.958Z,9.80
2019-04-22T09:00:07.165Z,6.07
2019-04-22T09:02:51.541Z,6.83
2019-04-22T09:05:11.946Z,6.60
2019-04-22T09:07:39.723Z,6.33
2019-04-22T09:10:24.142Z,10.73
2019-04-22T09:15:26.359Z,7.27
2019-04-22T09:20:36.889Z,7.15
2019-04-22T09:23:24.648Z,7.17
2019-04-22T09:32:19.033Z,6.40
2019-04-22T09:35:10.214Z,8.15
2019-04-22T09:37:55.995Z,9.17
2019-04-22T09:40:39.279Z,7.60
2019-04-22T09:42:50.398Z,4.90
2019-04-22T09:45:21.581Z,5.67
2019-04-22T09:48:23.997Z,5.95
2019-04-22T09:50:52.507Z,8.55
2019-04-22T09:56:37.460Z,6.05
2019-04-22T09:59:48.467Z,8.08
2019-04-22T10:02:26.723Z,7.92
2019-04-22T10:05:00.200Z,8.43
2019-04-22T10:10:46.905Z,9.85
2019-04-22T10:13:18.955Z,6.83
2019-04-22T10:15:42.934Z,4.37
2019-04-22T10:18:20.353Z,5.03
2019-04-22T10:20:45.898Z,4.03
2019-04-22T10:26:26.843Z,6.53
2019-04-22T10:28:53.269Z,3.13
2019-04-22T10:31:23.830Z,6.40
2019-04-22T10:33:46.415Z,5.37
2019-04-22T10:35:57.398Z,4.67
2019-04-22T10:38:26.302Z,2.67
2019-04-22T10:40:54.542Z,3.80
2019-04-22T10:43:23.202Z,5.60
2019-04-22T10:45:52.186Z,6.05
2019-04-22T10:48:19.762Z,2.40
2019-04-22T10:51:04.747Z,5.70
2019-04-22T10:53:33.395Z,4.15
2019-04-22T10:56:12.661Z,3.22
2019-04-22T10:58:52.928Z,6.37
2019-04-22T11:01:25.641Z,3.10
2019-04-22T11:03:59.464Z,3.12
2019-04-22T11:06:56.353Z,3.00
2019-04-22T11:09:25.309Z,4.25
2019-04-22T11:12:16.722Z,3.08
2019-04-22T11:14:45.591Z,3.17
2019-04-22T11:17:19.554Z,3.12
2019-04-22T11:19:47.951Z,2.65
2019-04-22T11:22:38.882Z,3.75
2019-04-22T11:25:07.722Z,3.02
2019-04-22T11:27:45.510Z,4.00
2019-04-22T11:30:27.939Z,1.80
2019-04-22T11:32:54.199Z,4.33
2019-04-22T11:35:23.636Z,4.60
2019-04-22T11:37:54.964Z,2.40
2019-04-22T11:40:36.402Z,2.10
2019-04-22T11:42:59.609Z,2.63
2019-04-22T11:45:33.249Z,2.12
2019-04-22T11:48:11.187Z,3.07
2019-04-22T11:51:00.045Z,2.60
2019-04-22T11:53:22.640Z,3.73
2019-04-22T11:55:50.798Z,2.50
2019-04-22T11:58:18.975Z,2.10
2019-04-22T12:00:49.945Z,2.03
2019-04-22T12:03:23.085Z,3.53
2019-04-22T12:05:53.654Z,3.20
2019-04-22T12:08:21.263Z,5.43
2019-04-22T12:10:54.822Z,2.53
2019-04-22T12:13:21.864Z,4.53
2019-04-22T12:15:51.147Z,5.25
2019-04-22T12:18:19.635Z,4.10
2019-04-22T12:21:01.340Z,4.62
2019-04-22T12:23:56.896Z,3.72
2019-04-22T12:26:46.387Z,2.52
2019-04-22T12:29:17.168Z,4.40
2019-04-22T12:31:45.339Z,4.78
2019-04-22T12:34:27.145Z,2.90
2019-04-22T12:40:45.448Z,6.30
2019-04-22T12:43:22.169Z,2.70
2019-04-22T12:49:07.864Z,3.60
2019-04-22T12:55:17.288Z,5.30
2019-04-22T12:58:05.467Z,6.75
2019-04-22T13:00:34.300Z,3.20
2019-04-22T13:03:03.021Z,3.45
2019-04-22T13:05:38.296Z,5.47
2019-04-22T13:08:13.913Z,9.38
2019-04-22T13:11:02.902Z,6.65
2019-04-22T13:13:25.123Z,8.10
2019-04-22T13:15:59.388Z,4.92
2019-04-22T13:18:35.521Z,6.37
2019-04-22T13:20:56.742Z,4.12
2019-04-22T13:23:29.653Z,3.33
2019-04-22T13:26:23.234Z,5.93
2019-04-22T13:28:54.835Z,11.33
2019-04-22T13:31:26.707Z,4.22
2019-04-22T13:34:02.312Z,4.42
2019-04-22T13:36:31.713Z,9.20
2019-04-22T13:39:07.265Z,3.60
2019-04-22T13:41:46.426Z,4.90
2019-04-22T13:44:23.034Z,9.25
2019-04-22T13:47:10.395Z,4.75
2019-04-22T13:50:16.816Z,4.37
2019-04-22T13:55:05.335Z,4.87
2019-04-22T13:57:44.074Z,4.97
2019-04-22T13:59:58.129Z,3.97
2019-04-22T14:02:52.786Z,5.03
2019-04-22T14:05:22.808Z,3.83
2019-04-22T14:07:54.835Z,6.58
2019-04-22T14:10:22.879Z,4.72
2019-04-22T14:13:12.222Z,4.47
2019-04-22T14:15:46.737Z,3.02
2019-04-22T14:18:16.898Z,3.15
2019-04-22T14:20:58.674Z,6.08
2019-04-22T14:23:32.992Z,3.58
2019-04-22T14:26:07.302Z,3.92
2019-04-22T14:28:42.023Z,3.70
2019-04-22T14:31:28.556Z,6.85
2019-04-22T14:34:04.998Z,7.28
2019-04-22T14:36:31.215Z,5.87
2019-04-22T14:38:59.522Z,5.22
2019-04-22T14:41:42.577Z,7.40
2019-04-22T14:47:13.125Z,4.55
2019-04-22T14:49:47.253Z,5.55
2019-04-22T14:52:31.333Z,7.05
2019-04-22T14:55:13.828Z,5.00
2019-04-22T14:57:21.363Z,6.43
2019-04-22T14:59:59.770Z,6.97
2019-04-22T15:02:29.840Z,7.70
2019-04-22T15:05:01.422Z,8.23
2019-04-22T15:07:30.811Z,4.00
2019-04-22T15:10:01.955Z,3.43
2019-04-22T15:12:36.703Z,4.63
2019-04-22T15:15:05.800Z,8.33
2019-04-22T15:17:56.979Z,7.90
2019-04-22T15:20:54.297Z,7.30
2019-04-22T15:23:44.752Z,4.20
2019-04-22T15:26:12.573Z,4.97
2019-04-22T15:28:55.488Z,7.67
2019-04-22T15:31:27.154Z,5.13
2019-04-22T15:34:02.668Z,5.53
2019-04-22T15:36:44.325Z,6.23
2019-04-22T15:39:20.838Z,4.63
2019-04-22T15:42:11.795Z,7.00
2019-04-22T15:44:39.920Z,5.03
2019-04-22T15:47:18.846Z,4.00
2019-04-22T15:53:22.072Z,5.87
2019-04-22T15:56:05.018Z,8.73
2019-04-22T15:58:48.881Z,6.13
2019-04-22T16:01:32.066Z,3.77
2019-04-22T16:07:01.202Z,4.40
2019-04-22T16:09:39.437Z,5.70
2019-04-22T16:12:26.148Z,6.80
2019-04-22T16:14:56.163Z,9.03
2019-04-22T16:17:28.573Z,5.93
2019-04-22T16:20:46.303Z,4.70
2019-04-22T16:23:44.707Z,6.23
2019-04-22T16:26:36.144Z,5.00
2019-04-22T16:29:07.313Z,7.10
2019-04-22T16:31:43.307Z,4.47
2019-04-22T16:34:15.560Z,4.53
2019-04-22T16:36:47.128Z,4.80
2019-04-22T16:39:15.849Z,3.40
2019-04-22T16:41:44.443Z,6.00
2019-04-22T16:44:12.338Z,4.77
2019-04-22T16:46:41.729Z,5.47
2019-04-22T16:49:17.352Z,5.87
2019-04-22T16:51:45.828Z,8.43
2019-04-22T16:54:17.938Z,5.60
2019-04-22T16:56:46.045Z,5.53
2019-04-22T16:59:18.885Z,3.90
2019-04-22T17:02:22.407Z,6.40
2019-04-22T17:05:05.481Z,4.53
2019-04-22T17:07:34.123Z,9.40
2019-04-22T17:10:17.981Z,7.50
2019-04-22T17:16:30.624Z,4.93
2019-04-22T17:18:58.506Z,6.03
2019-04-22T17:21:31.874Z,4.07
2019-04-22T17:24:03.601Z,5.83
2019-04-22T17:26:32.502Z,5.37
2019-04-22T17:29:06.445Z,7.63
2019-04-22T17:31:34.827Z,8.17
2019-04-22T17:34:19.609Z,6.27
2019-04-22T17:36:47.076Z,4.67
2019-04-22T17:39:31.475Z,4.20
2019-04-22T17:42:21.579Z,6.00
2019-04-22T17:45:09.665Z,6.97
2019-04-22T17:47:35.923Z,7.00
2019-04-22T17:50:20.193Z,6.53
2019-04-22T17:52:50.814Z,4.93
2019-04-22T17:55:12.844Z,7.70
2019-04-22T17:57:40.931Z,7.00
2019-04-22T18:00:18.972Z,5.60
2019-04-22T18:02:45.629Z,5.50
2019-04-22T18:05:08.051Z,5.83
2019-04-22T18:08:07.902Z,8.27
2019-04-22T18:10:32.646Z,5.97
2019-04-22T18:13:07.411Z,8.57
2019-04-22T18:15:25.568Z,7.63
2019-04-22T18:18:00.738Z,5.70
2019-04-22T18:20:28.115Z,6.90
2019-04-22T18:22:53.555Z,9.00
2019-04-22T18:25:33.852Z,9.97
2019-04-22T18:28:15.254Z,8.60
2019-04-22T18:30:25.505Z,7.23
2019-04-22T18:33:02.816Z,9.47
2019-04-22T18:35:33.965Z,9.30
2019-04-22T18:38:15.441Z,10.83
2019-04-22T18:40:38.632Z,8.03
2019-04-22T18:43:26.214Z,12.47
2019-04-22T18:45:57.520Z,14.87
2019-04-22T18:48:08.759Z,8.43
2019-04-22T18:50:56.237Z,10.20
2019-04-22T18:53:51.877Z,9.67
2019-04-22T18:55:55.526Z,9.47
2019-04-22T18:58:27.369Z,7.43
2019-04-22T19:00:41.847Z,14.87
2019-04-22T19:03:19.614Z,9.33
2019-04-22T19:06:09.571Z,13.07
2019-04-22T19:08:34.608Z,8.43
2019-04-22T19:16:19.564Z,13.00
2019-04-22T19:18:33.643Z,8.57
2019-04-22T19:21:02.769Z,9.97
2019-04-22T19:23:33.175Z,9.60
2019-04-22T19:25:58.602Z,10.00
2019-04-22T19:31:02.732Z,9.50
2019-04-22T19:33:31.562Z,9.10
2019-04-22T19:36:01.522Z,9.93
2019-04-22T19:38:16.523Z,9.63
2019-04-22T19:41:06.903Z,9.60
2019-04-22T19:43:30.839Z,10.30
2019-04-22T19:45:53.655Z,11.27
2019-04-22T19:48:34.615Z,13.00
2019-04-22T19:50:58.862Z,9.80
2019-04-22T19:53:22.724Z,12.87
2019-04-22T19:55:50.967Z,10.37
2019-04-22T19:58:22.550Z,11.17
2019-04-22T20:01:08.753Z,10.57
2019-04-22T20:04:03.462Z,12.30
2019-04-22T20:06:35.350Z,11.83
2019-04-22T20:09:05.769Z,10.17
2019-04-22T20:11:38.582Z,15.10
2019-04-22T20:14:07.413Z,10.43
2019-04-22T20:16:32.554Z,9.20
2019-04-22T20:19:04.988Z,10.47
2019-04-22T20:21:35.464Z,12.77
2019-04-22T20:23:53.725Z,13.30
2019-04-22T20:26:33.703Z,10.20
2019-04-22T20:29:02.770Z,13.60
2019-04-22T20:31:30.092Z,12.50
2019-04-22T20:34:09.146Z,11.23
2019-04-22T20:36:51.951Z,10.93
2019-04-22T20:38:59.533Z,15.37
2019-04-22T20:41:31.551Z,15.73
2019-04-22T20:44:13.285Z,12.40
2019-04-22T20:46:31.160Z,13.20
2019-04-22T20:49:00.553Z,10.97
2019-04-22T20:51:45.428Z,12.23
2019-04-22T20:54:02.752Z,10.47
2019-04-22T20:56:30.092Z,10.37
2019-04-22T20:59:02.066Z,13.63
2019-04-22T21:01:30.087Z,10.80
2019-04-22T21:03:50.628Z,13.87
2019-04-22T21:06:32.247Z,10.03
2019-04-22T21:09:00.899Z,10.00
2019-04-22T21:11:30.128Z,9.53
2019-04-22T21:14:01.711Z,16.53
2019-04-22T21:16:34.639Z,12.57
2019-04-22T21:18:52.669Z,16.33
2019-04-22T21:21:31.707Z,15.13
2019-04-22T21:23:54.447Z,11.83
2019-04-22T21:26:30.814Z,10.30
2019-04-22T21:28:54.031Z,10.37
2019-04-22T21:31:30.658Z,10.67
2019-04-22T21:34:01.061Z,10.47
2019-04-22T21:36:30.136Z,10.87
2019-04-22T21:38:53.012Z,11.37
2019-04-22T21:41:24.875Z,10.20
2019-04-22T21:43:58.088Z,12.20
2019-04-22T21:46:42.635Z,9.67
2019-04-22T21:49:28.002Z,14.43
2019-04-22T21:52:00.210Z,13.90
2019-04-22T21:54:33.996Z,11.13
2019-04-22T21:59:46.534Z,11.60
2019-04-22T22:02:27.841Z,11.63
2019-04-22T22:04:51.176Z,10.30
2019-04-22T22:07:13.860Z,9.30
2019-04-22T22:09:54.180Z,12.00
2019-04-22T22:12:37.743Z,10.80
2019-04-22T22:15:04.036Z,9.97
2019-04-22T22:17:35.399Z,10.67
2019-04-22T22:20:03.490Z,13.27
2019-04-22T22:22:45.574Z,10.47
2019-04-22T22:25:10.845Z,12.20
2019-04-22T22:27:40.712Z,10.10
2019-04-22T22:30:29.337Z,10.70
2019-04-22T22:32:40.698Z,12.13
2019-04-22T22:35:14.705Z,14.67
2019-04-22T22:37:50.372Z,11.17
2019-04-22T22:40:26.359Z,10.40
2019-04-22T22:42:56.994Z,9.87
2019-04-22T22:45:39.415Z,9.10
2019-04-22T22:51:15.165Z,12.37
2019-04-22T22:53:54.694Z,13.73
2019-04-22T22:56:34.135Z,12.33
2019-04-22T22:58:52.459Z,10.63
2019-04-22T23:01:27.790Z,11.53
2019-04-22T23:04:15.067Z,13.43
2019-04-22T23:06:33.583Z,14.87
2019-04-22T23:09:07.141Z,11.50
2019-04-22T23:11:45.725Z,11.70
2019-04-22T23:14:07.885Z,10.70
2019-04-22T23:16:33.951Z,11.23
2019-04-22T23:19:02.091Z,12.13
2019-04-22T23:21:38.530Z,10.50
2019-04-22T23:24:16.153Z,14.60
2019-04-22T23:26:58.672Z,10.50
2019-04-22T23:29:37.061Z,12.57
2019-04-22T23:32:08.958Z,12.53
2019-04-22T23:34:42.933Z,13.67
2019-04-22T23:37:28.987Z,11.77
2019-04-22T23:40:16.232Z,11.53
2019-04-22T23:42:41.780Z,10.87
2019-04-22T23:45:10.780Z,12.33
2019-04-22T23:47:32.422Z,12.37
2019-04-22T23:50:09.159Z,13.00
2019-04-22T23:52:47.959Z,15.70
2019-04-22T23:55:23.146Z,12.23
2019-04-22T23:57:57.121Z,12.17
